createdAt,value
2019-05-03T00:03:08.917Z,98164.59
2019-05-03T00:06:22.694Z,98164.82
2019-05-03T00:09:36.277Z,98169.86
2019-05-03T00:12:49.997Z,98173.64
2019-05-03T00:16:13.074Z,98171.45
2019-05-03T00:19:26.770Z,98167.72
2019-05-03T00:22:41.878Z,98166.85
2019-05-03T00:25:55.820Z,98165.97
2019-05-03T00:29:09.310Z,98169.72
2019-05-03T00:32:24.910Z,98170.42
2019-05-03T00:35:58.145Z,98166.79
2019-05-03T00:39:18.474Z,98170.73
2019-05-03T00:42:32.235Z,98167.09
2019-05-03T00:45:46.334Z,98173.33
2019-05-03T00:49:00.150Z,98174.69
2019-05-03T00:52:13.970Z,98175.09
2019-05-03T00:55:27.476Z,98177.84
2019-05-03T00:58:53.001Z,98182.50
2019-05-03T01:02:06.611Z,98181.80
2019-05-03T01:05:20.224Z,98179.22
2019-05-03T01:08:33.719Z,98179.41
2019-05-03T01:11:47.396Z,98177.83
2019-05-03T01:15:03.232Z,98178.59
2019-05-03T01:18:19.161Z,98182.97
2019-05-03T01:21:32.744Z,98184.36
2019-05-03T01:24:46.350Z,98193.08
2019-05-03T01:28:01.532Z,98187.53
2019-05-03T01:31:15.033Z,98188.05
2019-05-03T01:34:28.867Z,98188.05
2019-05-03T01:37:42.567Z,98201.49
2019-05-03T01:41:54.324Z,98205.13
2019-05-03T01:45:08.009Z,98210.37
2019-05-03T01:48:32.586Z,98210.80
2019-05-03T01:52:07.838Z,98213.37
2019-05-03T01:55:23.759Z,98210.58
2019-05-03T01:58:37.261Z,98213.25
2019-05-03T02:02:08.778Z,98223.70
2019-05-03T02:05:42.676Z,98223.20
2019-05-03T02:08:55.825Z,98232.29
2019-05-03T02:12:09.709Z,98223.88
2019-05-03T02:15:23.316Z,98232.09
2019-05-03T02:18:36.801Z,98231.58
2019-05-03T02:21:52.354Z,98237.30
2019-05-03T02:25:06.748Z,98237.00
2019-05-03T02:28:22.074Z,98239.86
2019-05-03T02:31:36.034Z,98251.88
2019-05-03T02:34:49.511Z,98247.66
2019-05-03T02:38:03.731Z,98249.84
2019-05-03T02:41:17.492Z,98245.02
2019-05-03T02:44:31.688Z,98242.53
2019-05-03T02:48:10.926Z,98241.80
2019-05-03T02:51:26.033Z,98237.77
2019-05-03T02:54:39.985Z,98240.16
2019-05-03T02:57:56.061Z,98236.48
2019-05-03T03:01:09.554Z,98240.83
2019-05-03T03:04:25.985Z,98240.54
2019-05-03T03:07:45.904Z,98237.77
2019-05-03T03:11:01.207Z,98242.00
2019-05-03T03:14:17.105Z,98241.97
2019-05-03T03:17:36.378Z,98246.58
2019-05-03T03:20:51.876Z,98243.47
2019-05-03T03:24:08.704Z,98248.16
2019-05-03T03:27:25.633Z,98245.39
2019-05-03T03:31:11.841Z,98246.03
2019-05-03T03:34:30.311Z,98242.78
2019-05-03T03:37:46.180Z,98251.86
2019-05-03T03:41:01.364Z,98255.45
2019-05-03T03:44:18.057Z,98252.50
2019-05-03T03:47:36.454Z,98261.59
2019-05-03T03:50:50.125Z,98259.16
2019-05-03T03:54:06.064Z,98262.81
2019-05-03T03:57:21.729Z,98271.31
2019-05-03T04:00:36.270Z,98271.16
2019-05-03T04:03:50.364Z,98270.97
2019-05-03T04:07:06.615Z,98278.48
2019-05-03T04:10:20.681Z,98289.87
2019-05-03T04:13:36.156Z,98286.70
2019-05-03T04:16:57.783Z,98290.36
2019-05-03T04:20:11.886Z,98296.78
2019-05-03T04:23:26.734Z,98302.69
2019-05-03T04:26:40.773Z,98305.92
2019-05-03T04:29:55.724Z,98307.29
2019-05-03T04:33:09.339Z,98309.48
2019-05-03T04:36:23.010Z,98321.13
2019-05-03T04:39:36.515Z,98323.06
2019-05-03T04:42:50.032Z,98324.34
2019-05-03T04:46:18.343Z,98327.00
2019-05-03T04:49:31.829Z,98337.31
2019-05-03T04:52:46.389Z,98339.20
2019-05-03T04:56:00.386Z,98341.79
2019-05-03T04:59:15.856Z,98337.83
2019-05-03T05:02:29.436Z,98347.03
2019-05-03T05:05:45.325Z,98352.89
2019-05-03T05:08:58.407Z,98354.70
2019-05-03T05:16:35.646Z,98362.73
2019-05-03T05:20:02.072Z,98362.73
2019-05-03T05:23:15.900Z,98365.78
2019-05-03T05:26:39.309Z,98375.28
2019-05-03T05:29:52.911Z,98372.52
2019-05-03T05:33:09.100Z,98373.61
2019-05-03T05:37:07.271Z,98372.27
2019-05-03T05:40:24.443Z,98376.38
2019-05-03T05:43:37.827Z,98366.95
2019-05-03T05:47:00.770Z,98364.56
2019-05-03T05:50:25.230Z,98359.12
2019-05-03T05:53:38.918Z,98360.11
2019-05-03T05:57:02.697Z,98354.22
2019-05-03T06:00:26.242Z,98358.52
2019-05-03T06:03:39.731Z,98355.34
2019-05-03T06:07:11.639Z,98360.08
2019-05-03T06:10:56.967Z,98359.00
2019-05-03T06:14:34.685Z,98359.80
2019-05-03T06:17:53.229Z,98362.41
2019-05-03T06:21:19.524Z,98367.38
2019-05-03T06:24:37.978Z,98376.52
2019-05-03T06:27:51.605Z,98368.93
2019-05-03T06:31:30.649Z,98380.07
2019-05-03T06:34:45.542Z,98384.41
2019-05-03T06:37:59.477Z,98398.07
2019-05-03T06:41:15.055Z,98394.50
2019-05-03T06:44:28.821Z,98388.34
2019-05-03T06:47:46.054Z,98396.62
2019-05-03T06:51:00.253Z,98397.34
2019-05-03T06:54:15.538Z,98393.64
2019-05-03T06:57:28.737Z,98389.40
2019-05-03T07:00:55.438Z,98389.98
2019-05-03T07:04:15.123Z,98399.29
2019-05-03T07:07:54.784Z,98392.05
2019-05-03T07:11:08.873Z,98394.22
2019-05-03T07:14:24.560Z,98404.66
2019-05-03T07:17:37.851Z,98395.77
2019-05-03T07:20:57.084Z,98410.98
2019-05-03T07:24:11.022Z,98398.04
2019-05-03T07:27:24.923Z,98414.51
2019-05-03T07:30:38.970Z,98416.41
2019-05-03T07:33:52.439Z,98425.88
2019-05-03T07:37:06.094Z,98421.92
2019-05-03T07:40:19.550Z,98422.43
2019-05-03T07:43:33.020Z,98415.25
2019-05-03T07:46:46.511Z,98419.28
2019-05-03T07:50:00.436Z,98411.29
2019-05-03T07:53:15.093Z,98404.77
2019-05-03T07:56:35.494Z,98393.59
2019-05-03T07:59:49.151Z,98398.83
2019-05-03T08:03:05.040Z,98408.16
2019-05-03T08:06:19.138Z,98415.19
2019-05-03T08:09:34.875Z,98415.77
2019-05-03T08:12:48.200Z,98406.02
2019-05-03T08:16:01.686Z,98408.88
2019-05-03T08:19:15.392Z,98406.02
2019-05-03T08:22:28.965Z,98400.71
2019-05-03T08:25:44.544Z,98403.80
2019-05-03T08:28:58.301Z,98407.41
2019-05-03T08:32:26.572Z,98413.03
2019-05-03T08:35:42.271Z,98407.58
2019-05-03T08:38:56.399Z,98408.61
2019-05-03T08:42:19.700Z,98408.13
2019-05-03T08:45:34.721Z,98413.03
2019-05-03T08:48:48.505Z,98412.59
2019-05-03T08:52:02.244Z,98415.62
2019-05-03T08:55:16.111Z,98411.39
2019-05-03T08:58:29.916Z,98404.41
2019-05-03T09:01:45.435Z,98408.53
2019-05-03T09:04:59.623Z,98402.00
2019-05-03T09:08:15.584Z,98406.11
2019-05-03T09:11:33.998Z,98404.78
2019-05-03T09:14:47.990Z,98388.42
2019-05-03T09:17:59.923Z,98391.95
2019-05-03T09:21:14.814Z,98395.80
2019-05-03T09:24:28.863Z,98391.02
2019-05-03T09:27:44.565Z,98386.09
2019-05-03T09:30:58.347Z,98386.02
2019-05-03T09:34:11.854Z,98377.93
2019-05-03T09:37:25.678Z,98374.53
2019-05-03T09:40:39.594Z,98374.67
2019-05-03T09:43:55.301Z,98373.84
2019-05-03T09:47:08.746Z,98368.41
2019-05-03T09:50:22.236Z,98365.41
2019-05-03T09:53:44.672Z,98369.37
2019-05-03T09:56:59.237Z,98366.74
2019-05-03T10:00:16.207Z,98369.25
2019-05-03T10:03:29.861Z,98377.95
2019-05-03T10:06:45.210Z,98370.64
2019-05-03T10:09:58.901Z,98369.36
2019-05-03T10:13:16.808Z,98371.81
2019-05-03T10:16:31.235Z,98376.59
2019-05-03T10:19:45.183Z,98367.53
2019-05-03T10:23:06.387Z,98366.96
2019-05-03T10:26:20.173Z,98361.34
2019-05-03T10:29:34.021Z,98368.14
2019-05-03T10:32:53.261Z,98370.31
2019-05-03T10:36:06.834Z,98366.07
2019-05-03T10:39:20.539Z,98365.45
2019-05-03T10:42:35.289Z,98364.72
2019-05-03T10:45:49.099Z,98351.20
2019-05-03T10:49:03.127Z,98351.11
2019-05-03T10:52:17.432Z,98352.66
2019-05-03T10:55:30.953Z,98351.14
2019-05-03T10:58:50.218Z,98345.27
2019-05-03T11:02:22.308Z,98336.51
2019-05-03T11:05:35.834Z,98335.21
2019-05-03T11:08:49.331Z,98347.30
2019-05-03T11:12:05.361Z,98334.06
2019-05-03T11:15:19.231Z,98339.97
2019-05-03T11:18:34.598Z,98344.82
2019-05-03T11:21:48.447Z,98337.21
2019-05-03T11:25:02.740Z,98329.02
2019-05-03T11:28:21.302Z,98335.88
2019-05-03T11:31:49.572Z,98330.45
2019-05-03T11:35:29.599Z,98335.17
2019-05-03T11:38:45.537Z,98335.98
2019-05-03T11:41:59.365Z,98329.11
2019-05-03T11:45:15.240Z,98331.87
2019-05-03T11:48:29.630Z,98317.70
2019-05-03T11:51:44.634Z,98317.55
2019-05-03T11:54:58.252Z,98316.84
2019-05-03T11:58:21.475Z,98323.87
2019-05-03T12:01:44.926Z,98318.69
2019-05-03T12:04:59.526Z,98316.55
2019-05-03T12:08:14.732Z,98309.83
2019-05-03T12:11:30.417Z,98310.52
2019-05-03T12:17:11.673Z,98308.60
2019-05-03T12:19:59.292Z,98303.50
2019-05-03T12:23:16.047Z,98299.95
2019-05-03T12:26:40.612Z,98305.52
2019-05-03T12:29:44.813Z,98309.17
2019-05-03T12:32:58.488Z,98306.97
2019-05-03T12:36:12.063Z,98302.02
2019-05-03T12:39:30.134Z,98300.83
2019-05-03T12:42:41.708Z,98295.72
2019-05-03T12:45:55.602Z,98286.98
2019-05-03T12:49:09.099Z,98278.89
2019-05-03T12:52:25.721Z,98282.61
2019-05-03T12:55:38.463Z,98287.98
2019-05-03T12:59:02.912Z,98279.57
2019-05-03T13:02:27.853Z,98281.52
2019-05-03T13:05:41.388Z,98281.56
2019-05-03T13:08:54.913Z,98273.44
2019-05-03T13:12:10.217Z,98273.20
2019-05-03T13:15:24.511Z,98274.36
2019-05-03T13:18:38.328Z,98264.15
2019-05-03T13:21:52.206Z,98260.05
2019-05-03T13:25:07.528Z,98258.67
2019-05-03T13:28:21.161Z,98257.83
2019-05-03T13:31:34.860Z,98255.09
2019-05-03T13:34:49.215Z,98262.03
2019-05-03T13:38:02.919Z,98265.80
2019-05-03T13:41:16.405Z,98261.88
2019-05-03T13:44:30.568Z,98253.86
2019-05-03T13:47:44.719Z,98258.22
2019-05-03T13:50:59.427Z,98259.72
2019-05-03T13:54:14.603Z,98258.39
2019-05-03T13:57:28.876Z,98250.72
2019-05-03T14:00:42.492Z,98250.77
2019-05-03T14:03:56.442Z,98258.22
2019-05-03T14:07:10.067Z,98254.63
2019-05-03T14:10:25.074Z,98251.30
2019-05-03T14:13:39.261Z,98246.36
2019-05-03T14:16:54.735Z,98252.33
2019-05-03T14:20:28.778Z,98246.11
2019-05-03T14:24:00.738Z,98244.26
2019-05-03T14:27:16.993Z,98240.09
2019-05-03T14:30:30.090Z,98241.33
2019-05-03T14:33:44.890Z,98250.88
2019-05-03T14:36:58.510Z,98245.86
2019-05-03T14:40:14.552Z,98241.02
2019-05-03T14:43:28.456Z,98250.58
2019-05-03T14:46:42.062Z,98248.09
2019-05-03T14:49:55.610Z,98250.52
2019-05-03T14:53:09.331Z,98249.88
2019-05-03T14:56:29.773Z,98253.77
2019-05-03T15:00:12.231Z,98247.64
2019-05-03T15:03:28.835Z,98238.59
2019-05-03T15:06:42.327Z,98237.95
2019-05-03T15:09:56.057Z,98234.78
2019-05-03T15:13:09.808Z,98240.27
2019-05-03T15:16:25.041Z,98232.06
2019-05-03T15:19:38.664Z,98235.52
2019-05-03T15:22:54.712Z,98241.63
2019-05-03T15:26:08.248Z,98239.13
2019-05-03T15:29:21.741Z,98231.47
2019-05-03T15:32:35.481Z,98231.00
2019-05-03T15:35:48.952Z,98237.75
2019-05-03T15:39:04.829Z,98236.81
2019-05-03T15:42:19.710Z,98237.61
2019-05-03T15:45:54.557Z,98238.81
2019-05-03T15:49:08.190Z,98234.61
2019-05-03T15:52:21.961Z,98230.17
2019-05-03T15:55:35.549Z,98223.17
2019-05-03T15:58:49.106Z,98219.69
2019-05-03T16:02:04.509Z,98220.57
2019-05-03T16:05:18.615Z,98215.11
2019-05-03T16:08:32.097Z,98216.74
2019-05-03T16:11:45.928Z,98212.28
2019-05-03T16:14:59.718Z,98212.01
2019-05-03T16:18:14.834Z,98211.27
2019-05-03T16:21:30.751Z,98214.43
2019-05-03T16:24:47.008Z,98216.55
2019-05-03T16:28:20.406Z,98216.02
2019-05-03T16:31:34.493Z,98207.11
2019-05-03T16:34:48.062Z,98204.39
2019-05-03T16:38:01.660Z,98204.73
2019-05-03T16:41:17.902Z,98200.39
2019-05-03T16:44:31.718Z,98203.53
2019-05-03T16:47:45.227Z,98200.30
2019-05-03T16:50:58.838Z,98203.59
2019-05-03T16:54:14.573Z,98202.09
2019-05-03T16:57:28.291Z,98200.83
2019-05-03T17:00:42.006Z,98196.28
2019-05-03T17:04:01.397Z,98197.57
2019-05-03T17:07:37.650Z,98197.41
2019-05-03T17:10:51.750Z,98193.42
2019-05-03T17:14:05.379Z,98200.34
2019-05-03T17:17:19.013Z,98206.02
2019-05-03T17:20:34.723Z,98207.65
2019-05-03T17:23:48.154Z,98206.17
2019-05-03T17:27:02.378Z,98198.42
2019-05-03T17:30:16.055Z,98204.55
2019-05-03T17:33:30.121Z,98203.66
2019-05-03T17:36:45.047Z,98205.78
2019-05-03T17:40:17.377Z,98203.38
2019-05-03T17:44:02.675Z,98201.80
2019-05-03T17:47:16.557Z,98198.65
2019-05-03T17:50:30.175Z,98206.00
2019-05-03T17:53:54.569Z,98207.63
2019-05-03T17:57:19.223Z,98209.23
2019-05-03T18:00:59.425Z,98212.48
2019-05-03T18:04:37.926Z,98219.38
2019-05-03T18:08:11.481Z,98211.14
2019-05-03T18:11:29.091Z,98208.06
2019-05-03T18:14:44.914Z,98209.83
2019-05-03T18:17:58.556Z,98217.06
2019-05-03T18:21:12.171Z,98219.01
2019-05-03T18:24:25.994Z,98221.39
2019-05-03T18:27:39.506Z,98223.41
2019-05-03T18:30:54.735Z,98215.32
2019-05-03T18:34:18.584Z,98219.72
2019-05-03T18:37:24.499Z,98213.83
2019-05-03T18:40:38.264Z,98226.61
2019-05-03T18:44:08.316Z,98229.84
2019-05-03T18:47:25.165Z,98234.92
2019-05-03T18:50:38.776Z,98234.49
2019-05-03T18:53:54.086Z,98240.60
2019-05-03T18:57:08.300Z,98240.06
2019-05-03T19:00:24.688Z,98241.48
2019-05-03T19:03:38.617Z,98241.03
2019-05-03T19:07:03.862Z,98241.13
2019-05-03T19:10:28.773Z,98247.22
2019-05-03T19:13:52.835Z,98245.38
2019-05-03T19:17:16.252Z,98251.03
2019-05-03T19:20:29.886Z,98252.16
2019-05-03T19:23:44.796Z,98247.73
2019-05-03T19:26:58.514Z,98251.58
2019-05-03T19:30:12.287Z,98245.97
2019-05-03T19:33:26.176Z,98249.44
2019-05-03T19:36:39.685Z,98250.36
2019-05-03T19:39:55.048Z,98252.44
2019-05-03T19:43:08.689Z,98261.84
2019-05-03T19:46:22.183Z,98255.63
2019-05-03T19:49:35.714Z,98256.33
2019-05-03T19:53:01.245Z,98258.31
2019-05-03T19:56:15.728Z,98263.95
2019-05-03T19:59:47.855Z,98266.80
2019-05-03T20:03:08.247Z,98259.95
2019-05-03T20:09:59.902Z,98269.69
2019-05-03T20:13:15.173Z,98273.83
2019-05-03T20:16:28.926Z,98270.58
2019-05-03T20:19:42.708Z,98266.42
2019-05-03T20:22:58.914Z,98266.88
2019-05-03T20:26:11.976Z,98258.02
2019-05-03T20:29:25.480Z,98250.03
2019-05-03T20:32:38.970Z,98267.85
2019-05-03T20:35:54.330Z,98264.97
2019-05-03T20:39:07.980Z,98268.88
2019-05-03T20:42:40.292Z,98258.48
2019-05-03T20:46:06.891Z,98264.34
2019-05-03T20:49:20.409Z,98266.94
2019-05-03T20:52:35.224Z,98261.29
2019-05-03T20:55:48.779Z,98258.89
2019-05-03T20:59:02.490Z,98250.96
2019-05-03T21:02:16.301Z,98256.69
2019-05-03T21:05:32.950Z,98259.77
2019-05-03T21:08:53.036Z,98261.42
2019-05-03T21:12:00.863Z,98261.14
2019-05-03T21:16:45.127Z,98264.98
2019-05-03T21:20:03.475Z,98266.56
2019-05-03T21:23:18.124Z,98260.09
2019-05-03T21:26:31.628Z,98249.36
2019-05-03T21:29:50.153Z,98246.31
2019-05-03T21:33:05.451Z,98245.03
2019-05-03T21:36:19.219Z,98242.27
2019-05-03T21:39:34.717Z,98241.54
2019-05-03T21:42:48.602Z,98244.06
2019-05-03T21:46:08.700Z,98246.50
2019-05-03T21:49:27.815Z,98249.86
2019-05-03T21:52:41.344Z,98252.98
2019-05-03T21:55:55.142Z,98252.30
2019-05-03T21:59:08.739Z,98246.86
2019-05-03T22:02:22.311Z,98238.96
2019-05-03T22:05:35.820Z,98238.12
2019-05-03T22:08:49.628Z,98225.50
2019-05-03T22:12:05.105Z,98225.50
2019-05-03T22:15:34.670Z,98222.09
2019-05-03T22:18:48.288Z,98220.80
2019-05-03T22:22:20.059Z,98215.36
2019-05-03T22:25:34.882Z,98210.29
2019-05-03T22:28:48.499Z,98207.19
2019-05-03T22:32:02.366Z,98203.34
2019-05-03T22:35:16.116Z,98201.06
2019-05-03T22:38:29.598Z,98203.18
2019-05-03T22:41:43.325Z,98198.58
2019-05-03T22:44:57.231Z,98199.78
2019-05-03T22:48:10.994Z,98195.66
2019-05-03T22:51:24.595Z,98187.19
2019-05-03T22:54:38.496Z,98184.86
2019-05-03T22:57:51.965Z,98178.86
2019-05-03T23:01:05.802Z,98176.94
2019-05-03T23:04:19.313Z,98168.40
2019-05-03T23:07:36.872Z,98167.19
2019-05-03T23:10:48.322Z,98159.28
2019-05-03T23:14:01.806Z,98160.97
2019-05-03T23:17:15.283Z,98162.72
2019-05-03T23:20:36.400Z,98157.88
2019-05-03T23:23:51.163Z,98157.50
2019-05-03T23:27:05.180Z,98146.52
2019-05-03T23:30:18.790Z,98142.04
2019-05-03T23:33:32.255Z,98140.13
2019-05-03T23:36:46.403Z,98130.81
2019-05-03T23:39:59.875Z,98126.85
2019-05-03T23:43:14.455Z,98127.00
2019-05-03T23:46:47.721Z,98117.31
2019-05-03T23:50:01.598Z,98114.67
2019-05-03T23:53:15.438Z,98108.77
2019-05-03T23:56:29.197Z,98102.41
2019-05-03T23:59:44.857Z,98096.85
